createdAt,value
2023-03-20T00:00:24.248Z,2.03
2023-03-20T00:10:25.785Z,1.98
2023-03-20T00:20:27.041Z,2.00
2023-03-20T00:30:28.634Z,1.92
2023-03-20T00:40:29.938Z,2.50
2023-03-20T00:50:31.269Z,2.45
2023-03-20T01:00:32.579Z,2.78
2023-03-20T01:10:33.835Z,2.70
2023-03-20T01:20:35.054Z,3.25
2023-03-20T01:30:36.373Z,3.40
2023-03-20T01:40:37.656Z,3.75
2023-03-20T01:50:38.915Z,3.40
2023-03-20T02:00:40.117Z,4.15
2023-03-20T02:10:41.408Z,4.20
2023-03-20T02:20:42.609Z,4.53
2023-03-20T02:30:44.194Z,4.90
2023-03-20T02:40:45.920Z,4.78
2023-03-20T02:50:47.232Z,4.72
2023-03-20T03:00:48.478Z,5.53
2023-03-20T03:10:49.677Z,6.20
2023-03-20T03:20:50.873Z,6.78
2023-03-20T03:30:53.631Z,7.30
2023-03-20T03:40:54.904Z,6.88
2023-03-20T03:50:56.206Z,7.78
2023-03-20T04:00:57.433Z,7.10
2023-03-20T04:10:58.866Z,8.82
2023-03-20T04:21:00.145Z,9.40
2023-03-20T04:31:02.072Z,10.02
2023-03-20T04:41:03.646Z,10.43
2023-03-20T04:51:04.889Z,9.63
2023-03-20T05:01:06.165Z,10.50
2023-03-20T05:11:08.199Z,11.68
2023-03-20T05:21:09.419Z,10.70
2023-03-20T05:31:11.202Z,11.13
2023-03-20T05:41:12.445Z,11.35
2023-03-20T05:51:13.744Z,11.25
2023-03-20T06:01:18.152Z,11.05
2023-03-20T06:11:19.485Z,12.30
2023-03-20T06:21:20.982Z,12.55
2023-03-20T06:31:22.533Z,13.20
2023-03-20T06:41:34.354Z,13.25
2023-03-20T06:51:37.224Z,13.40
2023-03-20T07:01:38.560Z,13.15
2023-03-20T07:11:40.408Z,13.10
2023-03-20T07:21:42.227Z,12.65
2023-03-20T07:31:43.548Z,14.07
2023-03-20T07:41:44.846Z,13.82
2023-03-20T07:51:46.533Z,12.43
2023-03-20T08:01:48.286Z,11.40
2023-03-20T08:11:49.786Z,11.85
2023-03-20T08:21:52.202Z,11.45
2023-03-20T08:31:53.501Z,10.68
2023-03-20T08:41:54.887Z,9.23
2023-03-20T08:51:56.098Z,9.52
2023-03-20T09:01:57.803Z,9.15
2023-03-20T09:22:37.129Z,6.70
2023-03-20T09:53:26.758Z,5.30
2023-03-20T10:03:28.076Z,5.10
2023-03-20T10:13:44.973Z,4.53
2023-03-20T10:34:36.494Z,5.40
2023-03-20T10:44:37.854Z,4.00
2023-03-20T11:04:48.196Z,4.68
2023-03-20T11:14:49.552Z,3.78
2023-03-20T11:24:50.828Z,3.00
2023-03-20T11:34:52.292Z,2.42
2023-03-20T11:45:00.310Z,1.58
2023-03-20T11:55:01.872Z,2.10
2023-03-20T12:05:03.102Z,1.80
2023-03-20T12:15:04.349Z,1.63
2023-03-20T12:25:05.584Z,2.50
2023-03-20T12:35:06.794Z,2.50
2023-03-20T12:45:09.289Z,2.40
2023-03-20T12:55:10.652Z,2.10
2023-03-20T13:05:11.976Z,2.28
2023-03-20T13:15:14.723Z,2.05
2023-03-20T13:25:16.148Z,1.65
2023-03-20T13:35:17.383Z,1.48
2023-03-20T13:45:18.764Z,1.33
2023-03-20T13:55:20.070Z,2.30
2023-03-20T14:05:22.358Z,1.83
2023-03-20T14:15:23.583Z,1.75
2023-03-20T14:25:24.855Z,2.10
2023-03-20T14:35:26.272Z,1.90
2023-03-20T14:45:28.630Z,2.35
2023-03-20T14:55:30.609Z,2.00
2023-03-20T15:05:31.919Z,1.98
2023-03-20T15:15:33.197Z,2.00
2023-03-20T15:25:34.666Z,1.95
2023-03-20T15:35:36.586Z,1.80
2023-03-20T15:45:38.938Z,1.90
2023-03-20T15:55:40.248Z,1.83
2023-03-20T16:05:41.448Z,1.90
2023-03-20T16:15:42.869Z,2.00
2023-03-20T16:25:44.100Z,1.70
2023-03-20T16:35:45.449Z,2.30
2023-03-20T16:45:47.213Z,2.20
2023-03-20T16:55:48.466Z,2.30
2023-03-20T17:05:49.696Z,2.03
2023-03-20T17:15:50.950Z,2.00
2023-03-20T17:25:52.468Z,1.95
2023-03-20T17:35:54.104Z,2.03
2023-03-20T17:45:55.554Z,2.17
2023-03-20T17:55:56.762Z,1.73
2023-03-20T18:05:57.986Z,2.10
2023-03-20T18:15:59.238Z,1.65
2023-03-20T18:26:01.441Z,1.58
2023-03-20T18:36:02.742Z,1.55
2023-03-20T18:46:04.046Z,2.15
2023-03-20T18:56:05.386Z,2.10
2023-03-20T19:06:09.384Z,2.03
2023-03-20T19:16:10.926Z,1.70
2023-03-20T19:26:12.147Z,2.33
2023-03-20T19:36:13.674Z,2.35
2023-03-20T19:46:28.403Z,2.08
2023-03-20T19:56:37.602Z,2.40
2023-03-20T20:06:39.854Z,2.10
2023-03-20T20:16:43.528Z,2.03
2023-03-20T20:26:53.726Z,2.65
2023-03-20T20:47:17.269Z,2.70
2023-03-20T20:57:18.593Z,2.50
2023-03-20T21:07:19.845Z,5.18
2023-03-20T21:17:21.080Z,4.75
2023-03-20T21:27:22.294Z,4.47
2023-03-20T21:38:25.755Z,14.50
2023-03-20T22:09:25.764Z,3.10
2023-03-20T22:29:53.347Z,3.97
2023-03-20T22:49:55.166Z,3.58
2023-03-20T22:59:56.412Z,4.95
2023-03-20T23:09:58.163Z,4.95
2023-03-20T23:20:10.870Z,4.50
2023-03-20T23:30:16.184Z,5.20
2023-03-20T23:40:17.462Z,5.15
2023-03-20T23:50:28.504Z,5.18
